13  °C
Temperature
55  °F
Temperature
50  °F
 Dewpoint
10  °C
  Dewpoint
82  %
 Humidity
  Temperature
5  km/h
Wind Speed
3  kts
Wind Speed
3  mph
Wind Speed
1.3  m/s
Wind Speed
Calm
Due North

Wind Speed
Clear
Conditions
Pressure 1011.92 (hPa) - 29.88 (inHG)
Visibility 10.0 (km) - 6.2 (mi)

Sky Conditions
LHBP
Location Budapest Ferenc Liszt International
20 km (12.43 mi)
Metar :LHBP 180000Z VRB03KT CAVOK 13/10 Q1012 NOSIG
Thu 18th July 02:00 am

Nearest Airport
https://www.checkwx.com/weather/LHBP
     Metar Aviation API Data Provided by https://www.checkwx.com/
     Original CSS/SVG/PHP scripts by weather34.com © 2015-2019